createdAt,value
2023-11-07T00:00:25.000Z,91.35
2023-11-07T00:01:29.000Z,91.45
2023-11-07T00:02:32.000Z,91.66
2023-11-07T00:03:36.000Z,91.55
2023-11-07T00:04:40.000Z,91.66
2023-11-07T00:05:44.000Z,91.76
2023-11-07T00:06:48.000Z,91.91
2023-11-07T00:07:51.000Z,92.01
2023-11-07T00:08:55.000Z,92.21
2023-11-07T00:09:59.000Z,92.42
2023-11-07T00:11:03.000Z,92.32
2023-11-07T00:12:07.000Z,92.42
2023-11-07T00:13:10.000Z,92.58
2023-11-07T00:14:14.000Z,92.69
2023-11-07T00:15:18.000Z,92.48
2023-11-07T00:16:22.000Z,92.38
2023-11-07T00:17:25.000Z,91.93
2023-11-07T00:18:29.000Z,92.03
2023-11-07T00:19:33.000Z,92.03
2023-11-07T00:20:37.000Z,91.93
2023-11-07T00:21:40.000Z,91.61
2023-11-07T00:22:44.000Z,91.2
2023-11-07T00:23:48.000Z,90.85
2023-11-07T00:24:52.000Z,90.75
2023-11-07T00:25:55.000Z,90.34
2023-11-07T00:26:59.000Z,90.24
2023-11-07T00:28:03.000Z,89.93
2023-11-07T00:29:07.000Z,89.72
2023-11-07T00:30:11.000Z,89.37
2023-11-07T00:31:15.000Z,89.17
2023-11-07T00:32:19.000Z,89.27
2023-11-07T00:33:22.000Z,89.27
2023-11-07T00:34:26.000Z,88.86
2023-11-07T00:35:30.000Z,88.76
2023-11-07T00:36:34.000Z,88.76
2023-11-07T00:37:38.000Z,88.76
2023-11-07T00:38:41.000Z,88.76
2023-11-07T00:39:45.000Z,88.96
2023-11-07T00:40:49.000Z,88.86
2023-11-07T00:41:53.000Z,88.86
2023-11-07T00:42:56.000Z,89.07
2023-11-07T00:44:00.000Z,88.86
2023-11-07T00:45:04.000Z,89.07
2023-11-07T00:46:08.000Z,89.27
2023-11-07T00:47:12.000Z,89.27
2023-11-07T00:48:16.000Z,89.48
2023-11-07T00:49:19.000Z,89.58
2023-11-07T00:50:23.000Z,89.69
2023-11-07T00:51:27.000Z,89.78
2023-11-07T00:52:31.000Z,89.69
2023-11-07T00:53:34.000Z,89.69
2023-11-07T00:54:38.000Z,89.58
2023-11-07T00:55:42.000Z,89.78
2023-11-07T00:56:46.000Z,90.14
2023-11-07T00:57:49.000Z,90.03
2023-11-07T00:58:53.000Z,90.24
2023-11-07T00:59:57.000Z,90.44
2023-11-07T01:01:01.000Z,90.55
2023-11-07T01:02:05.000Z,90.65
2023-11-07T01:03:08.000Z,90.75
2023-11-07T01:04:12.000Z,90.95
2023-11-07T01:05:16.000Z,90.85
2023-11-07T01:06:20.000Z,90.75
2023-11-07T01:07:24.000Z,90.71
2023-11-07T01:08:28.000Z,90.5
2023-11-07T01:09:31.000Z,90.3
2023-11-07T01:10:35.000Z,90.3
2023-11-07T01:11:39.000Z,90.3
2023-11-07T01:12:43.000Z,90.3
2023-11-07T01:13:46.000Z,90.2
2023-11-07T01:14:50.000Z,90.3
2023-11-07T01:15:54.000Z,90.3
2023-11-07T01:16:58.000Z,90.2
2023-11-07T01:18:01.000Z,90.61
2023-11-07T01:19:05.000Z,90.61
2023-11-07T01:20:09.000Z,90.4
2023-11-07T01:21:13.000Z,90.4
2023-11-07T01:22:17.000Z,90.5
2023-11-07T01:23:20.000Z,90.5
2023-11-07T01:24:24.000Z,90.4
2023-11-07T01:25:28.000Z,90.81
2023-11-07T01:26:32.000Z,91.06
2023-11-07T01:27:36.000Z,91.06
2023-11-07T01:28:39.000Z,91.57
2023-11-07T01:29:43.000Z,91.67
2023-11-07T01:30:47.000Z,91.99
2023-11-07T01:31:51.000Z,91.88
2023-11-07T01:32:54.000Z,92.19
2023-11-07T01:33:58.000Z,92.19
2023-11-07T01:35:02.000Z,92.19
2023-11-07T01:36:06.000Z,91.88
2023-11-07T01:37:09.000Z,91.84
2023-11-07T01:38:13.000Z,91.63
2023-11-07T01:39:17.000Z,91.63
2023-11-07T01:40:21.000Z,91.42
2023-11-07T01:41:25.000Z,91.59
2023-11-07T01:42:28.000Z,91.28
2023-11-07T01:43:32.000Z,91.08
2023-11-07T01:44:36.000Z,90.97
2023-11-07T01:45:40.000Z,90.97
2023-11-07T01:46:44.000Z,91.08
2023-11-07T01:47:47.000Z,90.67
2023-11-07T01:48:51.000Z,90.67
2023-11-07T01:49:55.000Z,90.56
2023-11-07T01:50:58.000Z,90.46
2023-11-07T01:52:02.000Z,90.56
2023-11-07T01:53:06.000Z,90.67
2023-11-07T01:54:10.000Z,90.56
2023-11-07T01:55:14.000Z,90.56
2023-11-07T01:56:18.000Z,90.83
2023-11-07T01:57:21.000Z,90.67
2023-11-07T01:58:25.000Z,90.67
2023-11-07T01:59:29.000Z,90.77
2023-11-07T02:00:33.000Z,90.77
2023-11-07T02:01:37.000Z,90.77
2023-11-07T02:02:40.000Z,90.87
2023-11-07T02:03:44.000Z,91.08
2023-11-07T02:04:48.000Z,90.97
2023-11-07T02:05:52.000Z,91.18
2023-11-07T02:06:56.000Z,91.28
2023-11-07T02:07:59.000Z,91.42
2023-11-07T02:09:03.000Z,91.53
2023-11-07T02:10:07.000Z,91.63
2023-11-07T02:11:11.000Z,91.63
2023-11-07T02:12:15.000Z,91.53
2023-11-07T02:13:18.000Z,91.63
2023-11-07T02:14:22.000Z,91.74
2023-11-07T02:15:26.000Z,91.84
2023-11-07T02:16:30.000Z,91.69
2023-11-07T02:17:33.000Z,91.49
2023-11-07T02:18:37.000Z,91.59
2023-11-07T02:19:41.000Z,91.49
2023-11-07T02:20:45.000Z,91.59
2023-11-07T02:21:49.000Z,91.49
2023-11-07T02:22:53.000Z,91.49
2023-11-07T02:23:56.000Z,91.49
2023-11-07T02:25:00.000Z,91.59
2023-11-07T02:26:04.000Z,91.59
2023-11-07T02:27:08.000Z,91.59
2023-11-07T02:28:11.000Z,91.38
2023-11-07T02:29:15.000Z,91.59
2023-11-07T02:30:19.000Z,91.9
2023-11-07T02:31:23.000Z,91.8
2023-11-07T02:32:27.000Z,91.8
2023-11-07T02:33:30.000Z,91.59
2023-11-07T02:34:34.000Z,91.59
2023-11-07T02:35:38.000Z,91.59
2023-11-07T02:36:42.000Z,91.59
2023-11-07T02:37:46.000Z,91.49
2023-11-07T02:38:50.000Z,91.49
2023-11-07T02:39:53.000Z,91.38
2023-11-07T02:40:57.000Z,91.59
2023-11-07T02:42:01.000Z,91.69
2023-11-07T02:43:05.000Z,91.38
2023-11-07T02:44:08.000Z,91.59
2023-11-07T02:45:12.000Z,91.49
2023-11-07T02:46:16.000Z,91.69
2023-11-07T02:47:20.000Z,91.49
2023-11-07T02:48:23.000Z,91.38
2023-11-07T02:49:27.000Z,91.08
2023-11-07T02:50:31.000Z,91.28
2023-11-07T02:51:35.000Z,91.18
2023-11-07T02:52:39.000Z,91.18
2023-11-07T02:53:42.000Z,90.97
2023-11-07T02:54:46.000Z,90.97
2023-11-07T02:55:50.000Z,91.08
2023-11-07T02:56:54.000Z,90.87
2023-11-07T02:57:57.000Z,91.08
2023-11-07T02:59:01.000Z,90.97
2023-11-07T03:00:05.000Z,91.08
2023-11-07T03:01:09.000Z,91.08
2023-11-07T03:02:13.000Z,91.12
2023-11-07T03:03:16.000Z,91.33
2023-11-07T03:04:20.000Z,91.33
2023-11-07T03:05:24.000Z,91.33
2023-11-07T03:06:28.000Z,91.42
2023-11-07T03:07:32.000Z,91.53
2023-11-07T03:08:35.000Z,91.63
2023-11-07T03:09:39.000Z,91.88
2023-11-07T03:10:43.000Z,91.99
2023-11-07T03:11:47.000Z,91.94
2023-11-07T03:12:51.000Z,92.08
2023-11-07T03:13:54.000Z,91.99
2023-11-07T03:14:58.000Z,92.08
2023-11-07T03:16:02.000Z,91.99
2023-11-07T03:17:06.000Z,91.99
2023-11-07T03:18:09.000Z,92.08
2023-11-07T03:19:13.000Z,92.19
2023-11-07T03:20:17.000Z,92.19
2023-11-07T03:21:21.000Z,92.19
2023-11-07T03:22:25.000Z,92.29
2023-11-07T03:23:28.000Z,92.25
2023-11-07T03:24:32.000Z,92.35
2023-11-07T03:25:36.000Z,92.55
2023-11-07T03:26:40.000Z,92.25
2023-11-07T03:27:43.000Z,92.04
2023-11-07T03:28:47.000Z,92.04
2023-11-07T03:29:51.000Z,91.94
2023-11-07T03:30:55.000Z,91.74
2023-11-07T03:31:59.000Z,91.9
2023-11-07T03:33:03.000Z,91.69
2023-11-07T03:34:06.000Z,91.9
2023-11-07T03:35:10.000Z,91.69
2023-11-07T03:36:14.000Z,91.69
2023-11-07T03:37:18.000Z,91.9
2023-11-07T03:38:21.000Z,91.59
2023-11-07T03:39:25.000Z,91.69
2023-11-07T03:40:29.000Z,91.59
2023-11-07T03:41:33.000Z,91.69
2023-11-07T03:42:37.000Z,91.49
2023-11-07T03:43:40.000Z,91.49
2023-11-07T03:44:44.000Z,91.28
2023-11-07T03:45:48.000Z,91.28
2023-11-07T03:46:52.000Z,91.18
2023-11-07T03:47:56.000Z,91.18
2023-11-07T03:48:59.000Z,91.08
2023-11-07T03:50:03.000Z,91.28
2023-11-07T03:51:07.000Z,91.28
2023-11-07T03:52:11.000Z,91.49
2023-11-07T03:53:14.000Z,91.53
2023-11-07T03:54:18.000Z,91.63
2023-11-07T03:55:22.000Z,91.84
2023-11-07T03:56:26.000Z,92.04
2023-11-07T03:57:29.000Z,92.25
2023-11-07T03:58:33.000Z,92.4
2023-11-07T03:59:37.000Z,92.5
2023-11-07T04:00:41.000Z,92.7
2023-11-07T04:01:45.000Z,92.7
2023-11-07T04:02:48.000Z,92.7
2023-11-07T04:03:52.000Z,93.01
2023-11-07T04:04:56.000Z,92.8
2023-11-07T04:06:00.000Z,93.21
2023-11-07T04:07:04.000Z,93.21
2023-11-07T04:08:08.000Z,93.42
2023-11-07T04:09:11.000Z,93.52
2023-11-07T04:10:15.000Z,93.32
2023-11-07T04:11:19.000Z,93.46
2023-11-07T04:12:23.000Z,93.57
2023-11-07T04:13:26.000Z,93.67
2023-11-07T04:14:30.000Z,93.57
2023-11-07T04:15:34.000Z,93.77
2023-11-07T04:16:38.000Z,93.77
2023-11-07T04:17:42.000Z,93.77
2023-11-07T04:18:46.000Z,93.67
2023-11-07T04:19:49.000Z,93.67
2023-11-07T04:20:53.000Z,93.67
2023-11-07T04:21:57.000Z,93.77
2023-11-07T04:23:01.000Z,93.77
2023-11-07T04:24:04.000Z,93.87
2023-11-07T04:25:08.000Z,94.08
2023-11-07T04:26:12.000Z,93.98
2023-11-07T04:27:16.000Z,93.98
2023-11-07T04:28:20.000Z,94.08
2023-11-07T04:29:23.000Z,94.18
2023-11-07T04:30:27.000Z,94.18
2023-11-07T04:31:31.000Z,94.18
2023-11-07T04:32:35.000Z,94.18
2023-11-07T04:33:38.000Z,94.04
2023-11-07T04:34:42.000Z,93.93
2023-11-07T04:35:46.000Z,93.93
2023-11-07T04:36:50.000Z,94.04
2023-11-07T04:37:54.000Z,94.14
2023-11-07T04:38:57.000Z,93.93
2023-11-07T04:40:01.000Z,93.83
2023-11-07T04:41:05.000Z,93.63
2023-11-07T04:42:09.000Z,93.59
2023-11-07T04:43:13.000Z,93.27
2023-11-07T04:44:16.000Z,93.27
2023-11-07T04:45:20.000Z,93.27
2023-11-07T04:46:24.000Z,93.17
2023-11-07T04:47:28.000Z,92.97
2023-11-07T04:48:32.000Z,93.17
2023-11-07T04:49:35.000Z,93.17
2023-11-07T04:50:39.000Z,93.07
2023-11-07T04:51:43.000Z,93.07
2023-11-07T04:52:47.000Z,93.17
2023-11-07T04:53:51.000Z,93.27
2023-11-07T04:54:55.000Z,93.27
2023-11-07T04:55:58.000Z,93.17
2023-11-07T04:57:02.000Z,93.27
2023-11-07T04:58:06.000Z,93.38
2023-11-07T04:59:10.000Z,93.63
2023-11-07T05:00:14.000Z,93.73
2023-11-07T05:01:17.000Z,93.63
2023-11-07T05:02:21.000Z,93.63
2023-11-07T05:03:25.000Z,93.93
2023-11-07T05:04:29.000Z,94.04
2023-11-07T05:05:32.000Z,94.14
2023-11-07T05:06:36.000Z,94.24
2023-11-07T05:07:40.000Z,94.24
2023-11-07T05:08:44.000Z,94.14
2023-11-07T05:09:48.000Z,94.14
2023-11-07T05:10:51.000Z,94.14
2023-11-07T05:11:55.000Z,94.14
2023-11-07T05:12:59.000Z,93.83
2023-11-07T05:14:03.000Z,93.79
2023-11-07T05:15:06.000Z,93.79
2023-11-07T05:16:10.000Z,93.59
2023-11-07T05:17:14.000Z,93.38
2023-11-07T05:18:18.000Z,93.17
2023-11-07T05:19:22.000Z,93.17
2023-11-07T05:20:25.000Z,92.97
2023-11-07T05:21:29.000Z,92.86
2023-11-07T05:22:33.000Z,92.97
2023-11-07T05:23:37.000Z,92.82
2023-11-07T05:24:41.000Z,92.82
2023-11-07T05:25:44.000Z,92.61
2023-11-07T05:26:48.000Z,92.72
2023-11-07T05:27:52.000Z,92.51
2023-11-07T05:28:56.000Z,92.41
2023-11-07T05:30:00.000Z,92.61
2023-11-07T05:31:03.000Z,92.51
2023-11-07T05:32:07.000Z,92.51
2023-11-07T05:33:11.000Z,92.31
2023-11-07T05:34:15.000Z,92.21
2023-11-07T05:35:19.000Z,92.31
2023-11-07T05:36:22.000Z,92.41
2023-11-07T05:37:26.000Z,92.31
2023-11-07T05:38:30.000Z,92.31
2023-11-07T05:39:34.000Z,92.31
2023-11-07T05:40:37.000Z,92.31
2023-11-07T05:41:41.000Z,92.21
2023-11-07T05:42:45.000Z,92.31
2023-11-07T05:43:49.000Z,92.21
2023-11-07T05:44:52.000Z,92.41
2023-11-07T05:45:56.000Z,92.41
2023-11-07T05:47:00.000Z,92.31
2023-11-07T05:48:04.000Z,92.41
2023-11-07T05:49:07.000Z,92.31
2023-11-07T05:50:11.000Z,92.21
2023-11-07T05:51:15.000Z,92.31
2023-11-07T05:52:19.000Z,92.31
2023-11-07T05:53:22.000Z,92.21
2023-11-07T05:54:26.000Z,92.21
2023-11-07T05:55:30.000Z,92.21
2023-11-07T05:56:34.000Z,92.21
2023-11-07T05:57:38.000Z,92.21
2023-11-07T05:58:41.000Z,92.21
2023-11-07T05:59:45.000Z,92.1
2023-11-07T06:00:49.000Z,92.0
2023-11-07T06:01:53.000Z,92.0
2023-11-07T06:02:56.000Z,92.0
2023-11-07T06:04:00.000Z,91.9
2023-11-07T06:05:04.000Z,92.1
2023-11-07T06:06:08.000Z,92.1
2023-11-07T06:07:12.000Z,91.8
2023-11-07T06:08:15.000Z,91.9
2023-11-07T06:09:19.000Z,91.9
2023-11-07T06:10:23.000Z,91.69
2023-11-07T06:11:27.000Z,91.9
2023-11-07T06:12:30.000Z,91.9
2023-11-07T06:13:34.000Z,91.8
2023-11-07T06:14:38.000Z,91.8
2023-11-07T06:15:42.000Z,91.49
2023-11-07T06:16:46.000Z,91.59
2023-11-07T06:17:49.000Z,91.59
2023-11-07T06:18:53.000Z,91.49
2023-11-07T06:19:57.000Z,91.49
2023-11-07T06:21:01.000Z,91.59
2023-11-07T06:22:05.000Z,91.59
2023-11-07T06:23:08.000Z,91.49
2023-11-07T06:24:12.000Z,91.49
2023-11-07T06:25:16.000Z,91.18
2023-11-07T06:26:20.000Z,91.08
2023-11-07T06:27:24.000Z,91.28
2023-11-07T06:28:27.000Z,91.49
2023-11-07T06:29:31.000Z,91.38
2023-11-07T06:30:35.000Z,91.28
2023-11-07T06:31:39.000Z,91.38
2023-11-07T06:32:42.000Z,91.49
2023-11-07T06:33:46.000Z,91.44
2023-11-07T06:34:50.000Z,91.24
2023-11-07T06:35:54.000Z,91.14
2023-11-07T06:36:57.000Z,91.14
2023-11-07T06:38:01.000Z,90.93
2023-11-07T06:39:05.000Z,90.93
2023-11-07T06:40:09.000Z,90.83
2023-11-07T06:41:13.000Z,90.62
2023-11-07T06:42:17.000Z,90.77
2023-11-07T06:43:20.000Z,90.77
2023-11-07T06:44:24.000Z,90.87
2023-11-07T06:45:28.000Z,90.97
2023-11-07T06:46:32.000Z,90.97
2023-11-07T06:47:36.000Z,91.08
2023-11-07T06:48:39.000Z,91.08
2023-11-07T06:49:43.000Z,91.18
2023-11-07T06:50:47.000Z,91.28
2023-11-07T06:51:51.000Z,90.97
2023-11-07T06:52:54.000Z,91.49
2023-11-07T06:53:58.000Z,91.38
2023-11-07T06:55:02.000Z,91.18
2023-11-07T06:56:06.000Z,91.14
2023-11-07T06:57:10.000Z,91.03
2023-11-07T06:58:13.000Z,90.93
2023-11-07T06:59:17.000Z,90.83
2023-11-07T07:00:21.000Z,90.93
2023-11-07T07:01:25.000Z,90.87
2023-11-07T07:02:29.000Z,90.73
2023-11-07T07:03:32.000Z,90.83
2023-11-07T07:04:36.000Z,90.32
2023-11-07T07:05:40.000Z,90.32
2023-11-07T07:06:44.000Z,90.22
2023-11-07T07:07:47.000Z,90.11
2023-11-07T07:08:51.000Z,90.22
2023-11-07T07:09:55.000Z,90.01
2023-11-07T07:10:59.000Z,89.6
2023-11-07T07:12:02.000Z,89.7
2023-11-07T07:13:06.000Z,89.6
2023-11-07T07:14:10.000Z,89.56
2023-11-07T07:15:14.000Z,89.56
2023-11-07T07:16:18.000Z,89.36
2023-11-07T07:17:22.000Z,89.36
2023-11-07T07:18:25.000Z,89.25
2023-11-07T07:19:29.000Z,89.15
2023-11-07T07:20:33.000Z,89.04
2023-11-07T07:21:37.000Z,89.04
2023-11-07T07:22:40.000Z,88.84
2023-11-07T07:23:44.000Z,88.23
2023-11-07T07:24:48.000Z,88.33
2023-11-07T07:25:52.000Z,88.53
2023-11-07T07:26:55.000Z,88.64
2023-11-07T07:27:59.000Z,88.64
2023-11-07T07:29:03.000Z,88.43
2023-11-07T07:30:07.000Z,88.64
2023-11-07T07:31:11.000Z,88.33
2023-11-07T07:32:14.000Z,88.33
2023-11-07T07:33:18.000Z,88.43
2023-11-07T07:34:22.000Z,88.33
2023-11-07T07:35:26.000Z,88.53
2023-11-07T07:36:30.000Z,88.02
2023-11-07T07:37:33.000Z,88.02
2023-11-07T07:38:37.000Z,88.23
2023-11-07T07:39:41.000Z,88.43
2023-11-07T07:40:45.000Z,88.12
2023-11-07T07:41:49.000Z,88.74
2023-11-07T07:42:52.000Z,88.74
2023-11-07T07:43:56.000Z,88.98
2023-11-07T07:45:00.000Z,89.19
2023-11-07T07:46:04.000Z,89.19
2023-11-07T07:47:07.000Z,89.5
2023-11-07T07:48:11.000Z,89.6
2023-11-07T07:49:15.000Z,89.7
2023-11-07T07:50:19.000Z,89.6
2023-11-07T07:51:22.000Z,89.6
2023-11-07T07:52:26.000Z,89.7
2023-11-07T07:53:30.000Z,89.36
2023-11-07T07:54:34.000Z,89.36
2023-11-07T07:55:38.000Z,89.56
2023-11-07T07:56:41.000Z,89.25
2023-11-07T07:57:45.000Z,88.39
2023-11-07T07:58:49.000Z,88.59
2023-11-07T07:59:53.000Z,88.39
2023-11-07T08:00:56.000Z,88.08
2023-11-07T08:02:00.000Z,87.73
2023-11-07T08:03:04.000Z,87.73
2023-11-07T08:04:08.000Z,87.53
2023-11-07T08:05:12.000Z,87.29
2023-11-07T08:06:15.000Z,87.29
2023-11-07T08:07:19.000Z,86.98
2023-11-07T08:08:23.000Z,87.29
2023-11-07T08:09:27.000Z,86.77
2023-11-07T08:10:31.000Z,86.88
2023-11-07T08:11:34.000Z,86.67
2023-11-07T08:12:38.000Z,86.77
2023-11-07T08:13:42.000Z,86.73
2023-11-07T08:14:46.000Z,86.73
2023-11-07T08:15:49.000Z,87.04
2023-11-07T08:16:53.000Z,86.63
2023-11-07T08:17:57.000Z,86.43
2023-11-07T08:19:01.000Z,86.12
2023-11-07T08:20:04.000Z,85.61
2023-11-07T08:21:08.000Z,85.81
2023-11-07T08:22:12.000Z,85.81
2023-11-07T08:23:16.000Z,85.71
2023-11-07T08:24:19.000Z,85.96
2023-11-07T08:25:23.000Z,85.96
2023-11-07T08:26:27.000Z,85.96
2023-11-07T08:27:31.000Z,86.16
2023-11-07T08:28:35.000Z,86.4
2023-11-07T08:29:39.000Z,87.02
2023-11-07T08:30:42.000Z,87.22
2023-11-07T08:31:46.000Z,87.12
2023-11-07T08:32:50.000Z,87.32
2023-11-07T08:33:54.000Z,87.63
2023-11-07T08:34:57.000Z,87.73
2023-11-07T08:36:01.000Z,87.94
2023-11-07T08:37:05.000Z,88.14
2023-11-07T08:38:09.000Z,88.04
2023-11-07T08:39:13.000Z,87.73
2023-11-07T08:40:16.000Z,87.53
2023-11-07T08:41:20.000Z,87.32
2023-11-07T08:42:24.000Z,86.98
2023-11-07T08:43:28.000Z,85.96
2023-11-07T08:44:32.000Z,86.26
2023-11-07T08:45:35.000Z,86.46
2023-11-07T08:46:39.000Z,86.57
2023-11-07T08:47:43.000Z,86.77
2023-11-07T08:48:47.000Z,86.57
2023-11-07T08:49:51.000Z,86.57
2023-11-07T08:50:54.000Z,86.71
2023-11-07T08:51:58.000Z,86.1
2023-11-07T08:53:02.000Z,86.4
2023-11-07T08:54:06.000Z,86.51
2023-11-07T08:55:09.000Z,86.2
2023-11-07T08:56:13.000Z,86.3
2023-11-07T08:57:17.000Z,85.89
2023-11-07T08:58:21.000Z,85.96
2023-11-07T08:59:24.000Z,85.44
2023-11-07T09:00:28.000Z,86.05
2023-11-07T09:01:32.000Z,86.16
2023-11-07T09:02:36.000Z,85.5
2023-11-07T09:03:40.000Z,84.89
2023-11-07T09:04:43.000Z,85.1
2023-11-07T09:05:47.000Z,83.62
2023-11-07T09:06:51.000Z,83.52
2023-11-07T09:07:55.000Z,84.3
2023-11-07T09:08:59.000Z,83.38
2023-11-07T09:10:02.000Z,82.67
2023-11-07T09:11:06.000Z,82.56
2023-11-07T09:12:10.000Z,83.14
2023-11-07T09:13:13.000Z,83.24
2023-11-07T09:14:17.000Z,83.44
2023-11-07T09:15:21.000Z,82.83
2023-11-07T09:16:25.000Z,83.14
2023-11-07T09:17:29.000Z,82.53
2023-11-07T09:18:32.000Z,83.2
2023-11-07T09:19:36.000Z,82.83
2023-11-07T09:20:40.000Z,82.73
2023-11-07T09:21:44.000Z,82.12
2023-11-07T09:22:48.000Z,82.32
2023-11-07T09:23:51.000Z,82.22
2023-11-07T09:24:55.000Z,82.32
2023-11-07T09:25:59.000Z,82.42
2023-11-07T09:27:03.000Z,82.42
2023-11-07T09:28:06.000Z,82.77
2023-11-07T09:29:10.000Z,82.87
2023-11-07T09:30:14.000Z,82.15
2023-11-07T09:31:18.000Z,83.28
2023-11-07T09:32:21.000Z,83.14
2023-11-07T09:33:25.000Z,82.93
2023-11-07T09:34:29.000Z,81.87
2023-11-07T09:35:33.000Z,81.87
2023-11-07T09:36:36.000Z,80.41
2023-11-07T09:37:40.000Z,80.82
2023-11-07T09:38:44.000Z,80.88
2023-11-07T09:39:48.000Z,81.39
2023-11-07T09:40:52.000Z,79.55
2023-11-07T09:41:55.000Z,79.82
2023-11-07T09:42:59.000Z,78.36
2023-11-07T09:44:03.000Z,77.95
2023-11-07T09:45:07.000Z,78.93
2023-11-07T09:46:11.000Z,79.85
2023-11-07T09:47:14.000Z,79.81
2023-11-07T09:48:18.000Z,77.67
2023-11-07T09:49:22.000Z,77.13
2023-11-07T09:50:25.000Z,76.92
2023-11-07T09:51:29.000Z,76.92
2023-11-07T09:52:33.000Z,77.57
2023-11-07T09:53:37.000Z,77.87
2023-11-07T09:54:41.000Z,77.57
2023-11-07T09:55:45.000Z,78.12
2023-11-07T09:56:48.000Z,78.77
2023-11-07T09:57:52.000Z,78.39
2023-11-07T09:58:56.000Z,79.0
2023-11-07T10:00:00.000Z,78.74
2023-11-07T10:01:04.000Z,79.35
2023-11-07T10:02:07.000Z,80.07
2023-11-07T10:03:11.000Z,80.16
2023-11-07T10:04:15.000Z,80.33
2023-11-07T10:05:19.000Z,80.02
2023-11-07T10:06:22.000Z,79.0
2023-11-07T10:07:26.000Z,79.68
2023-11-07T10:08:30.000Z,80.91
2023-11-07T10:09:34.000Z,80.4
2023-11-07T10:10:37.000Z,78.77
2023-11-07T10:11:41.000Z,79.58
2023-11-07T10:12:45.000Z,79.07
2023-11-07T10:13:49.000Z,78.66
2023-11-07T10:14:53.000Z,78.97
2023-11-07T10:15:56.000Z,79.03
2023-11-07T10:17:00.000Z,78.22
2023-11-07T10:18:04.000Z,77.3
2023-11-07T10:19:08.000Z,77.61
2023-11-07T10:20:12.000Z,77.1
2023-11-07T10:21:15.000Z,77.47
2023-11-07T10:22:19.000Z,78.39
2023-11-07T10:23:23.000Z,77.44
2023-11-07T10:24:27.000Z,77.44
2023-11-07T10:25:30.000Z,77.2
2023-11-07T10:26:34.000Z,77.2
2023-11-07T10:27:38.000Z,76.38
2023-11-07T10:28:42.000Z,76.89
2023-11-07T10:29:45.000Z,76.89
2023-11-07T10:30:49.000Z,75.77
2023-11-07T10:31:53.000Z,75.37
2023-11-07T10:32:57.000Z,75.16
2023-11-07T10:34:01.000Z,75.81
2023-11-07T10:35:05.000Z,76.15
2023-11-07T10:36:08.000Z,76.25
2023-11-07T10:37:12.000Z,77.17
2023-11-07T10:38:16.000Z,77.57
2023-11-07T10:39:20.000Z,77.17
2023-11-07T10:40:23.000Z,77.06
2023-11-07T10:41:27.000Z,77.44
2023-11-07T10:42:31.000Z,76.11
2023-11-07T10:43:35.000Z,76.62
2023-11-07T10:44:38.000Z,77.03
2023-11-07T10:45:42.000Z,76.38
2023-11-07T10:46:46.000Z,74.96
2023-11-07T10:47:50.000Z,75.37
2023-11-07T10:48:54.000Z,75.98
2023-11-07T10:49:58.000Z,75.26
2023-11-07T10:51:02.000Z,74.96
2023-11-07T10:52:05.000Z,75.67
2023-11-07T10:53:09.000Z,75.77
2023-11-07T10:54:13.000Z,73.23
2023-11-07T10:55:17.000Z,73.47
2023-11-07T10:56:20.000Z,74.28
2023-11-07T10:57:24.000Z,73.36
2023-11-07T10:58:28.000Z,74.35
2023-11-07T10:59:32.000Z,73.74
2023-11-07T11:00:35.000Z,73.26
2023-11-07T11:01:39.000Z,74.28
2023-11-07T11:02:43.000Z,74.99
2023-11-07T11:03:47.000Z,74.79
2023-11-07T11:04:51.000Z,74.41
2023-11-07T11:05:55.000Z,74.72
2023-11-07T11:06:59.000Z,75.47
2023-11-07T11:08:03.000Z,74.65
2023-11-07T11:09:06.000Z,75.37
2023-11-07T11:10:10.000Z,75.98
2023-11-07T11:11:14.000Z,75.37
2023-11-07T11:12:18.000Z,75.78
2023-11-07T11:13:21.000Z,74.76
2023-11-07T11:14:25.000Z,75.37
2023-11-07T11:15:29.000Z,76.18
2023-11-07T11:16:33.000Z,76.79
2023-11-07T11:17:36.000Z,77.51
2023-11-07T11:18:40.000Z,75.88
2023-11-07T11:19:44.000Z,75.71
2023-11-07T11:20:48.000Z,76.93
2023-11-07T11:21:52.000Z,77.03
2023-11-07T11:22:56.000Z,77.14
2023-11-07T11:23:59.000Z,77.44
2023-11-07T11:25:03.000Z,77.58
2023-11-07T11:26:07.000Z,78.16
2023-11-07T11:27:11.000Z,77.07
2023-11-07T11:28:14.000Z,77.17
2023-11-07T11:29:18.000Z,77.98
2023-11-07T11:30:22.000Z,77.68
2023-11-07T11:31:26.000Z,77.89
2023-11-07T11:32:29.000Z,78.5
2023-11-07T11:33:33.000Z,78.5
2023-11-07T11:34:37.000Z,77.68
2023-11-07T11:35:41.000Z,77.78
2023-11-07T11:36:44.000Z,78.09
2023-11-07T11:37:48.000Z,77.37
2023-11-07T11:38:52.000Z,77.27
2023-11-07T11:39:56.000Z,77.78
2023-11-07T11:41:00.000Z,78.3
2023-11-07T11:42:03.000Z,79.21
2023-11-07T11:43:07.000Z,77.68
2023-11-07T11:44:11.000Z,77.78
2023-11-07T11:45:15.000Z,77.98
2023-11-07T11:46:19.000Z,78.09
2023-11-07T11:47:22.000Z,77.58
2023-11-07T11:48:26.000Z,77.89
2023-11-07T11:49:30.000Z,78.09
2023-11-07T11:50:34.000Z,78.7
2023-11-07T11:51:37.000Z,77.89
2023-11-07T11:52:41.000Z,78.19
2023-11-07T11:53:45.000Z,78.91
2023-11-07T11:54:49.000Z,79.21
2023-11-07T11:55:52.000Z,79.32
2023-11-07T11:56:56.000Z,79.52
2023-11-07T11:58:00.000Z,79.62
2023-11-07T11:59:04.000Z,79.52
2023-11-07T12:00:08.000Z,79.72
2023-11-07T12:01:12.000Z,79.93
2023-11-07T12:02:15.000Z,79.21
2023-11-07T12:03:19.000Z,79.82
2023-11-07T12:04:23.000Z,80.02
2023-11-07T12:05:27.000Z,78.8
2023-11-07T12:06:30.000Z,78.02
2023-11-07T12:07:34.000Z,78.12
2023-11-07T12:08:38.000Z,77.51
2023-11-07T12:09:42.000Z,77.72
2023-11-07T12:10:45.000Z,77.62
2023-11-07T12:11:49.000Z,77.41
2023-11-07T12:12:53.000Z,77.82
2023-11-07T12:13:57.000Z,78.23
2023-11-07T12:15:00.000Z,78.02
2023-11-07T12:16:04.000Z,77.51
2023-11-07T12:17:08.000Z,78.39
2023-11-07T12:18:12.000Z,77.07
2023-11-07T12:19:16.000Z,77.58
2023-11-07T12:20:20.000Z,78.09
2023-11-07T12:21:23.000Z,77.48
2023-11-07T12:22:27.000Z,76.9
2023-11-07T12:23:31.000Z,77.41
2023-11-07T12:24:35.000Z,77.62
2023-11-07T12:25:38.000Z,77.41
2023-11-07T12:26:42.000Z,77.82
2023-11-07T12:27:46.000Z,77.78
2023-11-07T12:28:50.000Z,76.76
2023-11-07T12:29:53.000Z,77.68
2023-11-07T12:30:57.000Z,77.89
2023-11-07T12:32:01.000Z,77.17
2023-11-07T12:33:05.000Z,76.56
2023-11-07T12:34:09.000Z,76.35
2023-11-07T12:35:12.000Z,76.32
2023-11-07T12:36:16.000Z,77.03
2023-11-07T12:37:20.000Z,76.62
2023-11-07T12:38:24.000Z,76.39
2023-11-07T12:39:28.000Z,76.28
2023-11-07T12:40:31.000Z,76.83
2023-11-07T12:41:35.000Z,77.34
2023-11-07T12:42:39.000Z,76.93
2023-11-07T12:43:43.000Z,77.34
2023-11-07T12:44:46.000Z,77.78
2023-11-07T12:45:50.000Z,78.09
2023-11-07T12:46:54.000Z,77.89
2023-11-07T12:47:58.000Z,77.98
2023-11-07T12:49:01.000Z,77.89
2023-11-07T12:50:05.000Z,78.09
2023-11-07T12:51:09.000Z,77.58
2023-11-07T12:52:13.000Z,76.83
2023-11-07T12:53:17.000Z,77.03
2023-11-07T12:54:20.000Z,76.83
2023-11-07T12:55:24.000Z,76.22
2023-11-07T12:56:28.000Z,76.69
2023-11-07T12:57:32.000Z,77.0
2023-11-07T12:58:36.000Z,77.51
2023-11-07T12:59:39.000Z,77.4
2023-11-07T13:00:43.000Z,77.3
2023-11-07T13:01:47.000Z,76.79
2023-11-07T13:02:51.000Z,76.49
2023-11-07T13:03:54.000Z,77.4
2023-11-07T13:04:58.000Z,76.79
2023-11-07T13:06:02.000Z,77.1
2023-11-07T13:07:06.000Z,77.61
2023-11-07T13:08:10.000Z,76.83
2023-11-07T13:09:14.000Z,76.83
2023-11-07T13:10:18.000Z,77.75
2023-11-07T13:11:21.000Z,78.26
2023-11-07T13:12:25.000Z,77.55
2023-11-07T13:13:29.000Z,77.44
2023-11-07T13:14:33.000Z,77.85
2023-11-07T13:15:36.000Z,78.16
2023-11-07T13:16:40.000Z,78.16
2023-11-07T13:17:44.000Z,77.44
2023-11-07T13:18:48.000Z,77.75
2023-11-07T13:19:51.000Z,77.03
2023-11-07T13:20:55.000Z,77.34
2023-11-07T13:21:59.000Z,77.34
2023-11-07T13:23:03.000Z,77.64
2023-11-07T13:24:07.000Z,77.85
2023-11-07T13:25:10.000Z,78.16
2023-11-07T13:26:14.000Z,78.66
2023-11-07T13:27:18.000Z,78.56
2023-11-07T13:28:22.000Z,77.64
2023-11-07T13:29:26.000Z,78.19
2023-11-07T13:30:29.000Z,78.26
2023-11-07T13:31:33.000Z,78.66
2023-11-07T13:32:37.000Z,78.77
2023-11-07T13:33:41.000Z,78.77
2023-11-07T13:34:45.000Z,78.46
2023-11-07T13:35:48.000Z,78.22
2023-11-07T13:36:52.000Z,78.73
2023-11-07T13:37:56.000Z,78.32
2023-11-07T13:39:00.000Z,78.05
2023-11-07T13:40:03.000Z,77.14
2023-11-07T13:41:07.000Z,77.34
2023-11-07T13:42:11.000Z,77.64
2023-11-07T13:43:15.000Z,78.05
2023-11-07T13:44:19.000Z,77.55